Time;durP1;ratioP1;P1;durP2;ratioP2;P2;SDS_P1;SDS_P2;PMS_P1;PMS_P2;Temp;Humidity;BMP_temperature;BMP_pressure;BME280_temperature;BME280_humidity;BME280_pressure;Samples;Min_cycle;Max_cycle;Signal;HPM_P1;HPM_P2
2021/12/24 00:00:27;;;;;;;54.38;27.02;;;;;;;-12.70;70.83;101840.66;460153;113;922735;-71
2021/12/24 00:01:31;;;;;;;63.84;27.29;;;;;;;-12.73;70.74;101837.22;459912;113;922636;-70
2021/12/24 00:02:35;;;;;;;53.36;26.29;;;;;;;-12.73;70.75;101842.47;460550;113;930676;-70
2021/12/24 00:03:39;;;;;;;57.19;28.04;;;;;;;-12.74;70.75;101840.78;460289;114;922678;-71
2021/12/24 00:04:42;;;;;;;53.36;26.52;;;;;;;-12.74;70.81;101844.27;459965;113;922631;-70
2021/12/24 00:05:45;;;;;;;49.01;25.12;;;;;;;-12.72;70.83;101844.20;460199;113;930424;-72
2021/12/24 00:06:50;;;;;;;56.54;26.37;;;;;;;-12.73;70.82;101839.84;460441;113;923608;-70
2021/12/24 00:07:53;;;;;;;51.25;25.24;;;;;;;-12.73;70.76;101851.22;460241;114;922772;-70
2021/12/24 00:08:56;;;;;;;52.94;25.72;;;;;;;-12.73;70.74;101852.98;460198;114;930834;-70
2021/12/24 00:09:59;;;;;;;53.79;27.28;;;;;;;-12.73;70.87;101845.97;460781;113;930379;-70
2021/12/24 00:11:03;;;;;;;60.91;32.21;;;;;;;-12.72;70.83;101845.08;460320;114;922821;-70
2021/12/24 00:12:14;;;;;;;57.71;30.21;;;;;;;-12.72;70.72;101844.20;460881;114;930599;-70
2021/12/24 00:13:15;;;;;;;55.68;29.19;;;;;;;-12.72;70.66;101844.20;460135;113;922568;-70
2021/12/24 00:14:18;;;;;;;49.57;26.99;;;;;;;-12.76;70.58;101846.05;458928;114;922638;-70
2021/12/24 00:15:49;;;;;;;54.63;27.82;;;;;;;-12.77;70.56;101848.70;458921;113;922747;-70
2021/12/24 00:16:44;;;;;;;48.47;26.66;;;;;;;-12.79;70.52;101840.03;458382;114;930591;-70
2021/12/24 00:17:41;;;;;;;53.32;24.69;;;;;;;-12.81;70.54;101839.19;459190;113;922710;-70
2021/12/24 00:19:11;;;;;;;48.56;26.05;;;;;;;-12.80;70.70;101840.92;458071;113;923153;-70
2021/12/24 00:22:10;;;;;;;44.75;25.48;;;;;;;-12.74;70.80;101846.03;457572;115;922653;-70
2021/12/24 00:35:47;;;;;;;54.22;27.33;;;;;;;-12.71;70.55;101836.30;447681;117;923126;-70
2021/12/24 00:36:50;;;;;;;54.46;28.72;;;;;;;-12.76;70.38;101830.30;441064;118;923341;-70
2021/12/24 00:37:54;;;;;;;56.03;28.28;;;;;;;-12.81;70.25;101828.69;441085;120;923089;-70
2021/12/24 00:38:57;;;;;;;63.35;29.35;;;;;;;-12.86;70.32;101828.80;438297;118;931098;-71
2021/12/24 00:41:06;;;;;;;54.97;26.69;;;;;;;-12.93;70.28;101836.84;439109;118;923705;-70
2021/12/24 00:42:09;;;;;;;66.10;30.47;;;;;;;-12.94;70.35;101835.11;438820;119;922978;-70
2021/12/24 00:43:14;;;;;;;61.91;30.62;;;;;;;-12.95;70.40;101842.12;439597;118;922807;-70
2021/12/24 00:44:18;;;;;;;58.58;29.94;;;;;;;-12.95;70.34;101838.66;439287;119;923073;-69
2021/12/24 00:45:25;;;;;;;59.81;29.50;;;;;;;-12.98;70.18;101831.70;440716;118;922708;-71
2021/12/24 00:46:29;;;;;;;52.24;29.16;;;;;;;-12.99;70.25;101832.60;440412;118;930662;-70
2021/12/24 00:47:33;;;;;;;56.54;29.93;;;;;;;-12.96;70.20;101829.06;438265;118;922724;-70
2021/12/24 00:48:37;;;;;;;52.78;28.11;;;;;;;-12.96;70.23;101827.30;440165;118;923050;-70
2021/12/24 00:49:42;;;;;;;61.15;30.39;;;;;;;-12.96;70.17;101831.68;438040;119;922608;-69
2021/12/24 00:52:19;;;;;;;55.36;29.17;;;;;;;-12.96;70.03;101834.30;415876;125;923107;-70
2021/12/24 00:56:00;;;;;;;65.22;29.53;;;;;;;-12.95;70.00;101828.16;443842;118;922808;-70
2021/12/24 00:57:31;;;;;;;60.29;28.21;;;;;;;-12.85;69.95;101820.03;481745;107;926318;-70
2021/12/24 00:58:35;;;;;;;62.84;30.51;;;;;;;-12.96;69.96;101831.68;474675;109;922621;-70
2021/12/24 00:59:38;;;;;;;65.13;31.47;;;;;;;-12.97;70.06;101819.45;473073;109;922575;-70
2021/12/24 01:00:42;;;;;;;51.51;27.82;;;;;;;-12.97;70.15;101814.20;471198;109;930943;-69
2021/12/24 01:01:45;;;;;;;57.15;29.24;;;;;;;-12.94;70.17;101824.61;468606;109;922691;-70
2021/12/24 01:02:51;;;;;;;63.87;30.65;;;;;;;-12.93;70.14;101813.22;469379;109;922854;-70
2021/12/24 01:03:54;;;;;;;60.56;29.64;;;;;;;-12.91;70.09;101817.55;472118;109;930729;-70
2021/12/24 01:04:58;;;;;;;58.74;29.27;;;;;;;-12.90;70.07;101813.16;470745;109;923010;-69
2021/12/24 01:06:03;;;;;;;59.48;29.88;;;;;;;-12.88;70.11;101806.96;469563;109;930602;-69
2021/12/24 01:07:06;;;;;;;56.34;28.82;;;;;;;-12.84;70.14;101810.36;473499;109;922960;-69
2021/12/24 01:08:11;;;;;;;62.60;29.08;;;;;;;-12.82;70.09;101803.33;474368;109;930715;-69
2021/12/24 01:09:15;;;;;;;55.69;27.89;;;;;;;-12.79;70.06;101804.09;472357;109;930540;-70
2021/12/24 01:10:24;;;;;;;51.18;29.77;;;;;;;-12.76;70.05;101818.93;469740;110;922995;-70
2021/12/24 01:11:28;;;;;;;50.20;28.62;;;;;;;-12.74;69.97;101807.50;470868;110;922885;-70
2021/12/24 01:12:31;;;;;;;56.93;29.05;;;;;;;-12.73;69.83;101808.34;472963;109;922986;-69
2021/12/24 01:13:35;;;;;;;57.30;28.70;;;;;;;-12.72;69.88;101810.07;472575;109;923212;-70
2021/12/24 01:14:38;;;;;;;50.04;27.54;;;;;;;-12.70;69.95;101808.28;469493;110;930736;-70
2021/12/24 01:16:00;;;;;;;49.69;27.32;;;;;;;-12.65;70.05;101811.66;468223;109;923292;-70
2021/12/24 01:17:31;;;;;;;58.18;29.22;;;;;;;-12.61;70.09;101812.42;469930;109;928932;-69
2021/12/24 01:19:27;;;;;;;51.12;26.45;;;;;;;-12.54;70.01;101800.88;464619;111;922865;-73
2021/12/24 01:24:12;;;;;;;56.29;28.78;;;;;;;-12.55;69.75;101801.77;457957;113;922885;-70
2021/12/24 01:25:24;;;;;;;56.81;29.18;;;;;;;-12.61;69.54;101808.03;455544;114;922764;-70
2021/12/24 01:26:32;;;;;;;59.91;30.98;;;;;;;-12.69;69.39;101808.25;446784;116;922856;-69
2021/12/24 01:28:49;;;;;;;60.40;30.15;;;;;;;-12.82;69.57;101812.06;452546;114;922653;-70
2021/12/24 01:29:54;;;;;;;59.11;29.42;;;;;;;-12.85;69.66;101809.53;460439;113;922688;-70
2021/12/24 01:37:58;;;;;;;52.68;26.08;;;;;;;-12.91;69.56;101806.19;457781;113;922524;-70
2021/12/24 01:39:10;;;;;;;49.34;25.21;;;;;;;-12.94;69.62;101806.23;452790;115;922795;-70
2021/12/24 01:40:20;;;;;;;51.65;27.14;;;;;;;-12.97;69.67;101799.31;460604;112;923615;-70
2021/12/24 01:41:20;;;;;;;49.95;26.39;;;;;;;-12.97;69.74;101791.44;445749;115;922737;-69
2021/12/24 01:43:39;;;;;;;49.21;26.16;;;;;;;-12.96;69.64;101794.93;452375;112;923081;-71
2021/12/24 01:44:43;;;;;;;50.17;26.52;;;;;;;-12.97;69.56;101790.58;450415;113;922664;-70
2021/12/24 01:45:49;;;;;;;53.19;25.70;;;;;;;-12.98;69.71;101786.22;445613;115;923341;-70
2021/12/24 01:46:56;;;;;;;44.68;24.84;;;;;;;-12.98;69.64;101781.84;448647;116;922769;-69
2021/12/24 01:48:07;;;;;;;49.21;26.14;;;;;;;-13.00;69.64;101780.13;448494;115;922834;-70
2021/12/24 01:49:11;;;;;;;48.57;27.22;;;;;;;-13.01;69.70;101784.55;459926;112;922793;-70
2021/12/24 01:50:15;;;;;;;47.04;25.96;;;;;;;-12.99;69.65;101779.23;462631;112;930240;-70
2021/12/24 01:51:19;;;;;;;48.19;25.51;;;;;;;-13.03;69.53;101775.84;458313;113;922678;-70
2021/12/24 01:52:24;;;;;;;46.83;26.10;;;;;;;-13.04;69.54;101787.23;469523;110;923489;-70
2021/12/24 01:53:33;;;;;;;55.79;27.89;;;;;;;-13.06;69.47;101786.39;466892;111;922684;-70
2021/12/24 01:54:34;;;;;;;52.22;26.73;;;;;;;-13.08;69.41;101785.59;467967;111;922682;-70
2021/12/24 01:55:38;;;;;;;55.27;27.29;;;;;;;-13.11;69.40;101778.63;472199;109;922734;-70
2021/12/24 01:56:43;;;;;;;55.55;27.22;;;;;;;-13.12;69.43;101776.09;466712;111;923283;-72
2021/12/24 01:57:46;;;;;;;49.49;26.95;;;;;;;-13.13;69.43;101775.23;470540;109;922788;-70
2021/12/24 01:58:50;;;;;;;49.47;25.32;;;;;;;-13.14;69.47;101768.25;470402;109;923057;-68
2021/12/24 01:59:54;;;;;;;48.49;26.46;;;;;;;-13.12;69.51;101776.09;471939;109;923032;-69
2021/12/24 02:00:57;;;;;;;60.42;27.26;;;;;;;-13.11;69.52;101777.77;465138;111;922961;-69
2021/12/24 02:02:01;;;;;;;54.49;27.66;;;;;;;-13.09;69.46;101781.23;468952;109;923046;-69
2021/12/24 02:03:07;;;;;;;55.82;28.75;;;;;;;-13.07;69.42;101778.58;469719;109;930993;-69
2021/12/24 02:04:14;;;;;;;59.19;29.66;;;;;;;-13.07;69.34;101778.58;464878;110;922868;-68
2021/12/24 02:05:18;;;;;;;72.47;32.24;;;;;;;-13.08;69.20;101775.09;469456;109;922770;-69
2021/12/24 02:06:23;;;;;;;59.33;28.62;;;;;;;-13.12;69.13;101769.06;474338;109;923350;-71
2021/12/24 02:07:26;;;;;;;65.08;30.95;;;;;;;-13.13;69.01;101771.75;466159;109;923047;-69
2021/12/24 02:08:30;;;;;;;65.62;31.02;;;;;;;-13.16;69.02;101775.29;464664;111;922666;-69
2021/12/24 02:09:34;;;;;;;70.41;32.42;;;;;;;-13.14;69.14;101777.89;465780;110;922559;-69
2021/12/24 02:10:38;;;;;;;69.95;32.19;;;;;;;-13.14;69.15;101777.89;470966;109;922934;-69
2021/12/24 02:11:42;;;;;;;71.85;33.01;;;;;;;-13.13;69.13;101775.23;462315;111;922683;-69
2021/12/24 02:12:48;;;;;;;69.64;33.67;;;;;;;-13.12;69.14;101776.94;458355;112;922822;-69
2021/12/24 02:13:52;;;;;;;72.27;32.44;;;;;;;-13.11;69.12;101776.01;469461;110;930501;-69
2021/12/24 02:14:58;;;;;;;74.39;34.02;;;;;;;-13.08;69.09;101779.47;466716;109;922840;-68
2021/12/24 02:16:15;;;;;;;67.34;32.13;;;;;;;-13.06;69.08;101781.14;469012;109;922833;-68
2021/12/24 02:17:41;;;;;;;63.09;30.37;;;;;;;-13.06;69.02;101783.77;469750;110;922776;-69
2021/12/24 02:28:18;;;;;;;62.94;30.92;;;;;;;-12.99;68.93;101781.86;439827;117;923048;-69
2021/12/24 02:29:05;;;;;;;59.59;29.42;;;;;;;-13.06;68.99;101772.44;463767;113;922620;-69
2021/12/24 02:30:09;;;;;;;59.75;30.01;;;;;;;-13.06;69.21;101765.39;463677;112;922853;-70
2021/12/24 02:31:16;;;;;;;66.17;31.25;;;;;;;-13.02;69.32;101764.45;463438;112;922510;-68
2021/12/24 02:32:20;;;;;;;59.86;29.66;;;;;;;-12.99;69.30;101768.73;464010;112;922567;-70
2021/12/24 02:33:24;;;;;;;58.58;32.72;;;;;;;-12.99;69.21;101763.48;464199;113;923140;-69
2021/12/24 02:34:28;;;;;;;62.05;31.74;;;;;;;-13.01;69.15;101758.30;464640;113;922754;-69
2021/12/24 02:35:32;;;;;;;63.52;31.18;;;;;;;-13.01;68.99;101760.06;463520;112;923119;-70
2021/12/24 02:36:36;;;;;;;61.25;30.84;;;;;;;-13.03;68.96;101759.22;463948;112;922969;-69
2021/12/24 02:37:39;;;;;;;69.47;32.09;;;;;;;-13.06;68.95;101754.89;462922;113;922602;-69
2021/12/24 02:38:43;;;;;;;70.22;32.81;;;;;;;-13.08;68.96;101759.34;464579;113;922980;-67
2021/12/24 02:39:46;;;;;;;65.92;31.21;;;;;;;-13.10;68.89;101764.62;464394;111;922552;-70
2021/12/24 02:40:50;;;;;;;67.77;31.93;;;;;;;-13.12;68.92;101755.94;463664;111;922686;-69
2021/12/24 02:41:53;;;;;;;74.56;32.42;;;;;;;-13.13;68.94;101756.86;464212;112;930459;-69
2021/12/24 02:42:58;;;;;;;63.08;31.09;;;;;;;-13.14;69.01;101756.89;463721;112;923017;-70
2021/12/24 02:44:02;;;;;;;58.83;29.79;;;;;;;-13.14;69.04;101756.89;464256;112;922665;-69
2021/12/24 02:45:06;;;;;;;61.79;30.49;;;;;;;-13.14;69.11;101755.14;463997;112;923670;-69
2021/12/24 02:46:15;;;;;;;75.25;32.69;;;;;;;-13.13;69.04;101764.73;464498;111;922586;-69
2021/12/24 02:48:56;;;;;;;77.93;34.41;;;;;;;-13.12;68.86;101761.19;454033;114;922740;-68
2021/12/24 02:53:58;;;;;;;56.95;29.86;;;;;;;-13.18;68.75;101750.87;464261;111;922801;-68
2021/12/24 02:55:04;;;;;;;73.02;33.64;;;;;;;-13.20;68.86;101757.03;464307;112;923225;-68
2021/12/24 02:56:09;;;;;;;68.87;33.02;;;;;;;-13.23;68.81;101752.70;463937;111;922727;-69
2021/12/24 02:57:15;;;;;;;59.31;31.45;;;;;;;-13.24;68.78;101752.77;463487;113;923034;-67
2021/12/24 02:58:17;;;;;;;61.48;31.22;;;;;;;-13.27;68.82;101756.31;463796;112;923154;-68
2021/12/24 02:59:28;;;;;;;68.95;32.44;;;;;;;-13.27;68.91;101748.44;465095;112;922750;-67
2021/12/24 03:00:32;;;;;;;68.78;32.82;;;;;;;-13.26;68.99;101747.55;464667;112;930494;-69
2021/12/24 03:01:39;;;;;;;70.65;32.18;;;;;;;-13.24;68.84;101747.52;456046;114;923243;-69
2021/12/24 03:02:44;;;;;;;68.91;33.31;;;;;;;-13.24;68.73;101747.52;455496;113;930686;-68
2021/12/24 03:03:51;;;;;;;62.89;31.94;;;;;;;-13.26;68.71;101747.55;464702;113;922557;-68
2021/12/24 03:04:54;;;;;;;71.19;34.59;;;;;;;-13.26;68.57;101749.30;462380;112;922755;-71
2021/12/24 03:05:58;;;;;;;69.41;35.71;;;;;;;-13.29;68.61;101747.63;463831;112;923013;-66
2021/12/24 03:07:01;;;;;;;70.44;33.79;;;;;;;-13.29;68.59;101746.77;463847;112;930429;-70
2021/12/24 03:08:04;;;;;;;69.26;33.29;;;;;;;-13.29;68.67;101738.90;464374;111;922716;-69
2021/12/24 03:09:12;;;;;;;68.18;33.02;;;;;;;-13.29;68.70;101741.52;463857;112;928971;-69
2021/12/24 03:10:18;;;;;;;73.01;34.69;;;;;;;-13.27;68.84;101744.95;463691;112;930314;-69
2021/12/24 03:11:23;;;;;;;67.59;32.71;;;;;;;-13.24;68.88;101740.52;463479;112;923227;-70
2021/12/24 03:12:28;;;;;;;74.63;34.46;;;;;;;-13.20;68.89;101747.41;464674;113;922727;-68
2021/12/24 03:13:32;;;;;;;73.00;36.12;;;;;;;-13.15;68.91;101748.16;464966;112;922708;-68
2021/12/24 03:14:36;;;;;;;66.58;34.01;;;;;;;-13.12;68.86;101742.82;453766;114;923276;-69
2021/12/24 03:15:40;;;;;;;63.71;32.71;;;;;;;-13.08;68.70;101738.34;454601;114;922803;-68
2021/12/24 03:16:46;;;;;;;75.91;34.59;;;;;;;-13.06;68.58;101739.15;463754;112;930710;-68
2021/12/24 03:17:53;;;;;;;63.94;32.38;;;;;;;-13.03;68.66;101743.48;464385;113;922590;-69
2021/12/24 03:18:54;;;;;;;65.33;34.01;;;;;;;-12.98;68.75;101738.97;463930;112;922634;-68
2021/12/24 03:20:03;;;;;;;67.73;31.86;;;;;;;-12.93;68.81;101739.72;464494;113;922598;-68
2021/12/24 03:21:17;;;;;;;61.57;31.88;;;;;;;-12.88;68.79;101736.08;464456;113;922600;-71
2021/12/24 03:22:44;;;;;;;60.05;29.13;;;;;;;-12.84;68.70;101734.22;462312;111;922709;-70
2021/12/24 03:23:35;;;;;;;65.16;31.75;;;;;;;-12.84;68.49;101742.10;459104;112;922694;-68
2021/12/24 03:25:35;;;;;;;57.58;29.72;;;;;;;-12.84;68.39;101736.84;464190;112;923299;-69
2021/12/24 03:26:41;;;;;;;56.84;28.52;;;;;;;-12.83;68.50;101735.95;464209;112;922675;-68
2021/12/24 03:27:45;;;;;;;60.53;29.54;;;;;;;-12.81;68.46;101740.28;463600;112;923323;-69
2021/12/24 03:28:48;;;;;;;59.95;29.12;;;;;;;-12.80;68.44;101735.89;464159;112;922987;-69
2021/12/24 03:29:52;;;;;;;52.14;28.76;;;;;;;-12.77;68.57;101741.92;464465;113;922715;-69
2021/12/24 03:30:59;;;;;;;58.36;28.74;;;;;;;-12.73;68.53;101737.44;463478;111;922865;-70
2021/12/24 03:32:03;;;;;;;56.04;29.04;;;;;;;-12.72;68.52;101736.55;463560;112;923021;-68
2021/12/24 03:33:06;;;;;;;56.88;28.41;;;;;;;-12.69;68.64;101736.48;464303;112;922587;-69
2021/12/24 03:34:13;;;;;;;52.36;28.29;;;;;;;-12.67;68.67;101725.02;464904;113;922800;-68
2021/12/24 03:35:17;;;;;;;53.62;28.69;;;;;;;-12.64;68.62;101733.73;463911;112;922664;-68
2021/12/24 03:36:23;;;;;;;55.02;28.16;;;;;;;-12.63;68.45;101725.82;463555;111;922616;-68
2021/12/24 03:37:27;;;;;;;51.36;28.18;;;;;;;-12.65;68.39;101722.36;464664;113;924252;-70
2021/12/24 03:38:30;;;;;;;52.14;27.68;;;;;;;-12.65;68.50;101721.49;465454;112;923455;-70
2021/12/24 03:39:34;;;;;;;52.39;26.37;;;;;;;-12.67;68.38;101713.64;463367;111;922722;-69
2021/12/24 03:40:38;;;;;;;43.66;25.35;;;;;;;-12.70;68.39;101713.74;463172;112;930630;-70
2021/12/24 03:41:43;;;;;;;52.94;26.79;;;;;;;-12.73;68.34;101709.42;464899;113;922606;-70
2021/12/24 03:42:46;;;;;;;48.56;26.76;;;;;;;-12.75;68.34;101708.62;463781;112;923228;-70
2021/12/24 03:43:50;;;;;;;52.58;27.65;;;;;;;-12.76;68.44;101708.65;463594;112;922817;-69
2021/12/24 03:45:04;;;;;;;53.14;27.62;;;;;;;-12.78;68.33;101706.05;462647;112;930228;-69
2021/12/24 03:46:07;;;;;;;52.68;28.17;;;;;;;-12.81;68.34;101700.89;463497;113;922513;-69
2021/12/24 03:47:08;;;;;;;54.62;28.30;;;;;;;-12.82;68.35;101698.30;463395;111;922618;-68
2021/12/24 03:48:21;;;;;;;57.58;29.14;;;;;;;-12.83;68.33;101704.45;463690;112;923062;-69
2021/12/24 03:49:34;;;;;;;57.80;29.38;;;;;;;-12.85;68.17;101703.65;463138;113;922646;-70
2021/12/24 03:50:42;;;;;;;59.08;29.00;;;;;;;-12.89;68.07;101701.98;460769;111;922668;-69
2021/12/24 03:51:46;;;;;;;54.24;28.96;;;;;;;-12.92;68.16;101705.56;460750;112;922672;-69
2021/12/24 03:55:25;;;;;;;51.59;26.61;;;;;;;-13.04;68.06;101699.75;458668;113;923519;-70
2021/12/24 03:56:33;;;;;;;57.01;28.30;;;;;;;-13.11;68.16;101702.53;464144;112;923057;-69
2021/12/24 03:57:39;;;;;;;52.57;26.67;;;;;;;-13.13;68.21;101699.13;455863;114;923242;-68
2021/12/24 03:58:56;;;;;;;49.75;25.58;;;;;;;-13.15;68.25;101703.55;458496;111;923066;-70
2021/12/24 04:00:10;;;;;;;53.08;27.26;;;;;;;-13.14;68.44;101692.16;461403;112;923053;-70
2021/12/24 04:01:19;;;;;;;52.53;26.29;;;;;;;-13.12;68.62;101695.58;463055;112;923118;-69
2021/12/24 04:02:27;;;;;;;54.27;26.81;;;;;;;-13.05;68.79;101698.89;460236;111;923290;-70
2021/12/24 04:03:36;;;;;;;61.53;28.54;;;;;;;-12.98;68.98;101696.98;437621;119;922885;-68
2021/12/24 04:04:43;;;;;;;54.69;28.77;;;;;;;-12.93;68.86;101697.72;455114;112;922633;-69
2021/12/24 04:06:01;;;;;;;55.63;27.34;;;;;;;-12.90;68.83;101701.11;437683;118;922859;-69
2021/12/24 04:07:12;;;;;;;57.12;28.34;;;;;;;-12.85;68.81;101693.15;447536;111;923571;-69
2021/12/24 04:08:22;;;;;;;;;;;;;;;-12.83;68.57;101696.57;468810;111;922081;-70
2021/12/24 04:09:55;;;;;;;53.10;25.29;;;;;;;-12.84;68.43;101689.59;463581;112;922068;-69
2021/12/24 04:10:53;;;;;;;61.28;29.30;;;;;;;-12.87;68.30;101693.17;438205;117;923430;-68
2021/12/24 04:12:08;;;;;;;60.18;30.24;;;;;;;-12.92;68.38;101692.44;457556;113;922476;-70
2021/12/24 04:13:14;;;;;;;62.59;30.12;;;;;;;-12.94;68.49;101693.36;463987;111;922978;-70
2021/12/24 04:14:17;;;;;;;62.29;29.40;;;;;;;-12.94;68.64;101693.36;463761;113;922600;-67
2021/12/24 04:15:21;;;;;;;59.44;30.47;;;;;;;-12.93;68.69;101684.59;463792;113;922646;-69
2021/12/24 04:16:27;;;;;;;59.77;30.20;;;;;;;-12.92;68.62;101696.82;464342;112;922524;-69
2021/12/24 04:17:41;;;;;;;61.44;30.73;;;;;;;-12.92;68.50;101691.57;463791;111;931137;-68
2021/12/24 04:18:54;;;;;;;72.59;31.26;;;;;;;-12.94;68.33;101688.98;463785;112;922621;-67
2021/12/24 04:25:11;;;;;;;70.42;30.70;;;;;;;-13.03;68.30;101691.84;463904;113;922646;-69
2021/12/24 04:26:15;;;;;;;65.49;30.25;;;;;;;-13.03;68.33;101690.98;463881;112;922989;-69
2021/12/24 04:27:21;;;;;;;58.72;29.74;;;;;;;-13.06;68.28;101688.45;464030;112;922609;-71
2021/12/24 04:28:25;;;;;;;59.70;30.49;;;;;;;-13.05;68.29;101683.14;462232;113;930792;-68
2021/12/24 04:29:28;;;;;;;64.77;30.68;;;;;;;-13.06;68.24;101691.08;464380;113;922582;-69
2021/12/24 04:30:39;;;;;;;65.70;32.36;;;;;;;-13.06;68.25;101696.33;463734;111;928087;-68
2021/12/24 04:31:42;;;;;;;66.74;32.16;;;;;;;-13.06;68.24;101689.28;462932;113;923033;-69
2021/12/24 04:33:02;;;;;;;57.99;31.12;;;;;;;-13.04;68.26;101691.88;460499;111;923203;-68
2021/12/24 04:34:03;;;;;;;67.82;30.92;;;;;;;-13.03;68.29;101683.11;464930;113;922552;-70
2021/12/24 04:35:19;;;;;;;68.14;32.45;;;;;;;-12.99;68.52;101690.00;463489;112;923324;-69
2021/12/24 04:36:43;;;;;;;68.94;32.82;;;;;;;-12.95;68.49;101686.41;461637;113;922644;-69
2021/12/24 04:52:00;;;;;;;55.26;26.15;;;;;;;-13.42;67.98;101698.97;463084;111;922689;-68
2021/12/24 05:01:16;;;;;;;50.76;25.55;;;;;;;-13.64;68.06;101695.98;463178;111;922738;-68
2021/12/24 05:03:42;;;;;;;51.08;26.33;;;;;;;-13.72;68.07;101681.31;456158;115;923631;-69
2021/12/24 05:04:55;;;;;;;50.80;26.39;;;;;;;-13.74;68.14;101693.61;459264;113;922847;-68
2021/12/24 05:06:29;;;;;;;52.97;28.02;;;;;;;-13.76;68.15;101688.39;462643;112;922620;-68
2021/12/24 05:08:40;;;;;;;55.59;27.07;;;;;;;-13.77;68.19;101688.42;452541;113;923903;-68
2021/12/24 05:09:40;;;;;;;49.44;26.24;;;;;;;-13.78;68.16;101687.55;462626;112;922920;-68
2021/12/24 05:10:43;;;;;;;49.20;24.73;;;;;;;-13.80;68.17;101686.75;463830;113;922617;-69
2021/12/24 05:11:47;;;;;;;46.43;25.77;;;;;;;-13.79;68.22;101684.99;463680;113;922524;-69
2021/12/24 05:12:51;;;;;;;50.79;27.37;;;;;;;-13.77;68.46;101689.28;463801;112;922647;-70
2021/12/24 05:13:56;;;;;;;44.57;25.74;;;;;;;-13.71;68.51;101677.80;463997;112;926403;-68
2021/12/24 05:15:07;;;;;;;47.62;25.86;;;;;;;-13.69;68.41;101674.25;444453;113;923021;-69
2021/12/24 05:16:43;;;;;;;47.33;24.44;;;;;;;-13.66;68.34;101671.55;465078;111;922755;-68
2021/12/24 05:21:52;;;;;;;51.42;27.72;;;;;;;-13.52;68.37;101678.24;464197;112;922889;-70
2021/12/24 05:22:55;;;;;;;58.97;29.69;;;;;;;-13.52;68.18;101676.48;463501;113;922975;-69
2021/12/24 05:24:07;;;;;;;63.83;31.37;;;;;;;-13.54;68.17;101679.13;464621;111;922948;-68
2021/12/24 05:25:11;;;;;;;60.62;29.02;;;;;;;-13.54;68.15;101676.52;464483;112;922700;-67
2021/12/24 05:26:16;;;;;;;65.21;30.82;;;;;;;-13.54;68.08;101676.52;464613;112;922652;-69
2021/12/24 05:27:20;;;;;;;66.48;32.39;;;;;;;-13.56;68.05;101667.81;463443;112;922853;-69
2021/12/24 05:28:23;;;;;;;69.98;34.62;;;;;;;-13.58;67.99;101677.49;463412;111;922981;-68
2021/12/24 05:29:28;;;;;;;61.66;32.90;;;;;;;-13.58;68.02;101680.11;463930;112;923258;-68
2021/12/24 05:30:31;;;;;;;70.49;33.86;;;;;;;-13.57;68.09;101675.73;463850;112;922498;-70
2021/12/24 05:31:35;;;;;;;73.34;36.48;;;;;;;-13.56;68.16;101683.54;462701;112;922654;-69
2021/12/24 05:32:38;;;;;;;75.78;35.36;;;;;;;-13.55;68.03;101684.41;464002;111;930536;-66
2021/12/24 05:33:42;;;;;;;80.49;36.66;;;;;;;-13.55;67.99;101681.78;463866;111;922820;-69
2021/12/24 05:34:46;;;;;;;81.94;37.94;;;;;;;-13.56;67.98;101680.92;463786;112;930731;-68
2021/12/24 05:35:49;;;;;;;79.43;37.57;;;;;;;-13.57;67.84;101680.98;455390;114;930830;-69
2021/12/24 05:36:53;;;;;;;71.95;34.75;;;;;;;-13.60;67.86;101673.17;456067;114;923247;-69
2021/12/24 05:37:56;;;;;;;69.55;34.38;;;;;;;-13.59;67.93;101680.14;464530;113;926471;-70
2021/12/24 05:38:59;;;;;;;72.24;36.14;;;;;;;-13.58;68.03;101687.12;463862;112;923030;-69
2021/12/24 05:40:04;;;;;;;74.98;34.49;;;;;;;-13.57;67.98;101680.98;463846;112;922912;-68
2021/12/24 05:41:07;;;;;;;72.79;34.22;;;;;;;-13.57;67.94;101675.73;464243;111;922727;-70
2021/12/24 05:42:11;;;;;;;59.84;31.69;;;;;;;-13.58;67.92;101684.49;463081;113;922681;-68
2021/12/24 05:43:15;;;;;;;68.02;33.58;;;;;;;-13.58;67.93;101684.49;463942;113;930623;-68
2021/12/24 05:44:20;;;;;;;66.89;34.23;;;;;;;-13.59;67.96;101685.39;463820;113;923153;-68
2021/12/24 05:45:25;;;;;;;68.11;33.32;;;;;;;-13.59;67.96;101682.77;463064;112;922578;-68
2021/12/24 05:46:47;;;;;;;59.31;30.68;;;;;;;-13.59;67.94;101682.77;463874;111;922769;-68
2021/12/24 05:48:02;;;;;;;61.86;30.60;;;;;;;-13.59;68.06;101685.39;462460;112;922794;-68
2021/12/24 05:49:05;;;;;;;64.90;31.84;;;;;;;-13.57;68.15;101680.98;463533;112;923342;-69
2021/12/24 05:50:09;;;;;;;60.48;30.27;;;;;;;-13.55;68.17;101681.78;463349;112;922849;-66
2021/12/24 05:51:19;;;;;;;;;;;;;;;-13.53;68.11;101682.62;467416;112;922169;-67
2021/12/24 05:52:30;;;;;;;53.74;26.62;;;;;;;-13.51;68.05;101678.22;452634;113;922974;-69
2021/12/24 05:53:41;;;;;;;;;;;;;;;-13.52;68.04;101684.36;468386;113;922203;-68
2021/12/24 05:54:48;;;;;;;47.54;24.80;;;;;;;-13.54;68.06;101675.65;463968;112;922096;-68
2021/12/24 05:55:53;;;;;;;54.36;27.32;;;;;;;-13.56;68.13;101677.47;463339;111;923193;-68
2021/12/24 05:56:57;;;;;;;55.43;29.13;;;;;;;-13.57;68.26;101675.73;463935;111;922614;-67
2021/12/24 05:58:06;;;;;;;57.76;28.02;;;;;;;-13.57;68.30;101660.87;463825;112;930564;-68
2021/12/24 05:59:06;;;;;;;50.88;27.65;;;;;;;-13.56;68.32;101669.59;456730;115;923031;-67
2021/12/24 06:00:12;;;;;;;59.96;27.82;;;;;;;-13.56;68.36;101657.32;449303;115;923490;-67
2021/12/24 06:01:16;;;;;;;61.08;30.74;;;;;;;-13.52;68.45;101662.51;453805;113;930662;-69
2021/12/24 06:02:24;;;;;;;64.83;31.65;;;;;;;-13.49;68.52;101667.66;464650;112;922958;-69
2021/12/24 06:03:27;;;;;;;53.43;29.69;;;;;;;-13.46;68.46;101657.98;464716;113;923029;-67
2021/12/24 06:04:31;;;;;;;52.89;28.20;;;;;;;-13.45;68.39;101654.44;463441;111;922624;-67
2021/12/24 06:05:35;;;;;;;61.98;28.87;;;;;;;-13.40;68.53;101659.59;464090;113;923082;-66
2021/12/24 06:06:38;;;;;;;66.00;30.34;;;;;;;-13.37;68.55;101660.37;463312;112;930652;-69
2021/12/24 06:07:42;;;;;;;61.41;29.21;;;;;;;-13.31;68.58;101659.36;463772;111;922754;-68
2021/12/24 06:08:45;;;;;;;52.34;27.55;;;;;;;-13.26;68.66;101655.72;463892;111;931619;-71
2021/12/24 06:09:48;;;;;;;48.19;26.22;;;;;;;-13.21;68.72;101653.84;463213;112;930769;-69
2021/12/24 06:10:52;;;;;;;44.80;25.30;;;;;;;-13.15;68.78;101651.06;463533;112;922785;-67
2021/12/24 06:11:55;;;;;;;42.35;22.97;;;;;;;-13.09;68.72;101652.64;464221;113;930580;-68
2021/12/24 06:12:59;;;;;;;41.16;21.58;;;;;;;-13.06;68.67;101646.46;463264;112;930625;-67
2021/12/24 06:14:10;;;;;;;36.33;21.59;;;;;;;-12.99;68.77;101648.00;462978;112;923141;-70
2021/12/24 06:15:09;;;;;;;33.24;19.40;;;;;;;-12.95;68.71;101653.13;463733;112;922743;-66
2021/12/24 06:16:13;;;;;;;32.12;19.25;;;;;;;-12.92;68.63;101655.69;465530;112;922535;-68
2021/12/24 06:17:17;;;;;;;34.56;19.69;;;;;;;-12.88;68.69;101648.58;464657;111;923096;-66
2021/12/24 06:18:26;;;;;;;25.93;18.51;;;;;;;-12.85;68.64;101649.38;463418;112;930477;-68
2021/12/24 06:19:26;;;;;;;36.36;19.56;;;;;;;-12.84;68.53;101647.59;463817;112;922707;-69
2021/12/24 06:20:29;;;;;;;38.82;20.54;;;;;;;-12.83;68.47;101644.06;462417;113;923032;-68